« Back
NWS Peachtree City, Ga » Text Product » MCN Terminal Aerodrome Forecast


Printer-friendly Version
Current Version              Previous Versions:   1  2  3  4  5  6  7  8  9  

Terminal Aerodrome Forecast

776
FTUS42 KFFC 292300
TAFMCN
TAF
KMCN 292327Z 3000/3024 33006KT P6SM FEW080
     FM300100 32004KT P6SM SKC
     FM301300 04006KT P6SM FEW030
     FM301800 VRB03KT P6SM SCT050=



USA.gov is the U.S. government's official web portal to all federal, state and local government web resources and services.